createdAt,value
2022-08-17T00:00:43.601Z,45.40
2022-08-17T00:03:11.618Z,54.20
2022-08-17T00:05:48.840Z,57.10
2022-08-17T00:08:21.223Z,61.90
2022-08-17T00:10:49.435Z,65.00
2022-08-17T00:13:20.685Z,67.00
2022-08-17T00:15:48.221Z,65.20
2022-08-17T00:19:01.433Z,62.10
2022-08-17T00:21:10.274Z,53.10
2022-08-17T00:23:38.174Z,65.50
2022-08-17T00:26:05.393Z,69.70
2022-08-17T00:28:33.270Z,67.30
2022-08-17T00:31:00.977Z,68.30
2022-08-17T00:33:31.115Z,76.10
2022-08-17T00:35:59.320Z,79.40
2022-08-17T00:38:29.456Z,77.80
2022-08-17T00:41:01.075Z,75.80
2022-08-17T00:43:37.859Z,72.70
2022-08-17T00:46:15.940Z,70.00
2022-08-17T00:48:44.079Z,66.00
2022-08-17T00:51:30.610Z,81.30
2022-08-17T00:54:29.727Z,86.20
2022-08-17T00:57:00.665Z,88.10
2022-08-17T00:59:33.990Z,90.20
2022-08-17T01:02:02.528Z,91.90
2022-08-17T01:04:31.428Z,94.70
2022-08-17T01:07:01.177Z,95.40
2022-08-17T01:09:28.506Z,95.30
2022-08-17T01:11:55.493Z,94.30
2022-08-17T01:14:23.801Z,93.40
2022-08-17T01:16:54.222Z,93.20
2022-08-17T01:19:27.073Z,92.50
2022-08-17T01:22:06.554Z,91.30
2022-08-17T01:24:35.576Z,90.10
2022-08-17T01:27:04.068Z,89.60
2022-08-17T01:29:41.352Z,87.70
2022-08-17T01:32:09.770Z,84.90
2022-08-17T01:34:42.530Z,81.90
2022-08-17T01:37:12.721Z,81.10
2022-08-17T01:40:06.196Z,75.40
2022-08-17T01:43:03.999Z,70.90
2022-08-17T01:45:33.787Z,67.60
2022-08-17T01:48:01.418Z,69.20
2022-08-17T01:50:32.500Z,70.40
2022-08-17T01:53:04.475Z,71.70
2022-08-17T01:55:42.438Z,70.90
2022-08-17T01:58:09.905Z,75.20
2022-08-17T02:00:46.860Z,91.70
2022-08-17T02:03:26.644Z,93.00
2022-08-17T02:05:53.922Z,94.10
2022-08-17T02:08:37.314Z,95.30
2022-08-17T02:11:11.405Z,94.50
2022-08-17T02:13:39.194Z,96.40
2022-08-17T02:16:06.801Z,97.60
2022-08-17T02:18:34.072Z,98.50
2022-08-17T02:21:01.054Z,99.90
2022-08-17T02:23:30.467Z,99.90
2022-08-17T02:26:00.210Z,99.90
2022-08-17T02:28:28.555Z,99.90
2022-08-17T02:31:01.844Z,99.90
2022-08-17T02:33:43.114Z,99.90
2022-08-17T02:36:12.661Z,99.90
2022-08-17T02:38:41.193Z,99.90
2022-08-17T02:41:08.799Z,99.90
2022-08-17T02:43:35.849Z,99.90
2022-08-17T02:46:03.463Z,99.60
2022-08-17T02:48:32.067Z,99.10
2022-08-17T02:51:00.313Z,99.30
2022-08-17T02:53:27.965Z,99.90
2022-08-17T02:56:03.041Z,99.90
2022-08-17T02:58:34.682Z,99.70
2022-08-17T03:01:08.642Z,99.50
2022-08-17T03:03:40.224Z,99.50
2022-08-17T03:06:08.190Z,99.50
2022-08-17T03:08:37.430Z,98.60
2022-08-17T03:11:05.173Z,97.30
2022-08-17T03:13:32.459Z,97.00
2022-08-17T03:15:59.506Z,97.60
2022-08-17T03:18:28.011Z,99.90
2022-08-17T03:20:57.543Z,99.90
2022-08-17T03:23:25.392Z,99.90
2022-08-17T03:25:54.139Z,99.90
2022-08-17T03:28:22.526Z,99.90
2022-08-17T03:30:51.321Z,99.90
2022-08-17T03:33:19.462Z,99.90
2022-08-17T03:35:47.327Z,99.90
2022-08-17T03:38:17.107Z,99.90
2022-08-17T03:40:56.879Z,99.90
2022-08-17T03:43:31.791Z,99.90
2022-08-17T03:46:27.866Z,99.90
2022-08-17T03:49:15.284Z,98.80
2022-08-17T03:52:01.274Z,96.40
2022-08-17T03:54:46.912Z,93.60
2022-08-17T03:57:14.453Z,94.10
2022-08-17T03:59:41.503Z,96.60
2022-08-17T04:02:17.456Z,96.70
2022-08-17T04:04:44.910Z,96.50
2022-08-17T04:07:12.185Z,93.30
2022-08-17T04:09:39.252Z,92.90
2022-08-17T04:12:06.647Z,90.80
2022-08-17T04:14:53.426Z,82.50
2022-08-17T04:17:24.631Z,80.20
2022-08-17T04:19:51.791Z,70.40
2022-08-17T04:22:30.713Z,31.20
2022-08-17T04:25:04.507Z,1.00
2022-08-17T04:27:31.757Z,99.90
2022-08-17T04:29:58.890Z,1.00
2022-08-17T04:33:03.902Z,99.90
2022-08-17T04:35:18.866Z,99.90
2022-08-17T04:37:46.049Z,99.90
2022-08-17T04:40:31.827Z,99.90
2022-08-17T04:43:18.794Z,99.90
2022-08-17T04:45:55.266Z,1.00
2022-08-17T04:48:35.207Z,99.90
2022-08-17T04:51:07.484Z,99.90
2022-08-17T04:53:35.304Z,99.90
2022-08-17T04:56:02.439Z,99.90
2022-08-17T04:58:29.565Z,99.90
2022-08-17T05:00:57.218Z,99.90
2022-08-17T05:03:24.302Z,99.90
2022-08-17T05:05:51.433Z,99.90
2022-08-17T05:08:20.580Z,99.90
2022-08-17T05:10:48.424Z,99.90
2022-08-17T05:13:22.338Z,99.90
2022-08-17T05:15:55.395Z,99.90
2022-08-17T05:18:22.666Z,99.90
2022-08-17T05:20:52.476Z,99.90
2022-08-17T05:23:22.182Z,99.90
2022-08-17T05:25:51.522Z,99.90
2022-08-17T05:28:22.935Z,99.90
2022-08-17T05:30:55.927Z,99.90
2022-08-17T05:33:26.746Z,99.90
2022-08-17T05:35:55.712Z,99.90
2022-08-17T05:38:25.158Z,99.90
2022-08-17T05:40:53.230Z,99.90
2022-08-17T05:43:22.551Z,99.90
2022-08-17T05:46:16.226Z,99.90
2022-08-17T05:48:45.153Z,99.90
2022-08-17T05:51:30.825Z,99.90
2022-08-17T05:54:20.340Z,99.90
2022-08-17T05:56:57.795Z,99.90
2022-08-17T05:59:55.969Z,99.90
2022-08-17T06:02:50.809Z,99.90
2022-08-17T06:05:34.962Z,99.90
2022-08-17T06:08:21.985Z,99.90
2022-08-17T06:11:10.048Z,99.90
2022-08-17T06:13:42.829Z,99.90
2022-08-17T06:16:31.104Z,99.90
2022-08-17T06:19:39.984Z,99.90
2022-08-17T06:22:09.826Z,99.90
2022-08-17T06:25:10.428Z,99.90
2022-08-17T06:28:16.295Z,99.90
2022-08-17T06:31:01.372Z,99.90
2022-08-17T06:33:36.132Z,99.90
2022-08-17T06:36:30.346Z,99.90
2022-08-17T06:39:22.054Z,99.90
2022-08-17T06:42:58.809Z,99.90
2022-08-17T06:45:14.382Z,99.90
2022-08-17T06:47:45.242Z,99.90
2022-08-17T06:50:27.375Z,99.90
2022-08-17T06:52:59.496Z,99.90
2022-08-17T06:55:38.037Z,99.90
2022-08-17T06:58:15.624Z,99.90
2022-08-17T07:00:47.095Z,99.90
2022-08-17T07:03:44.466Z,99.90
2022-08-17T07:06:28.955Z,99.90
2022-08-17T07:09:02.730Z,99.90
2022-08-17T07:11:50.540Z,99.90
2022-08-17T07:14:31.654Z,99.90
2022-08-17T07:17:02.880Z,99.90
2022-08-17T07:19:33.719Z,99.90
2022-08-17T07:22:18.914Z,99.90
2022-08-17T07:24:59.587Z,99.90
2022-08-17T07:27:37.143Z,99.90
2022-08-17T07:30:24.632Z,99.90
2022-08-17T07:32:59.109Z,99.90
2022-08-17T07:35:37.841Z,99.90
2022-08-17T07:38:26.778Z,99.90
2022-08-17T07:40:57.677Z,99.90
2022-08-17T07:43:40.565Z,99.90
2022-08-17T07:46:52.152Z,99.90
2022-08-17T07:49:25.102Z,99.90
2022-08-17T07:51:57.788Z,99.90
2022-08-17T07:54:37.844Z,99.90
2022-08-17T07:57:10.575Z,99.90
2022-08-17T07:59:40.789Z,99.90
2022-08-17T08:02:17.103Z,99.90
2022-08-17T08:05:01.082Z,99.90
2022-08-17T08:07:37.418Z,99.90
2022-08-17T08:10:27.597Z,99.90
2022-08-17T08:13:14.549Z,99.90
2022-08-17T08:15:54.275Z,99.90
2022-08-17T08:18:53.438Z,99.90
2022-08-17T08:22:20.928Z,99.90
2022-08-17T08:25:00.051Z,99.90
2022-08-17T08:28:06.207Z,99.90
2022-08-17T08:30:40.827Z,99.90
2022-08-17T08:33:17.364Z,99.90
2022-08-17T08:35:54.403Z,99.90
2022-08-17T08:38:53.530Z,99.90
2022-08-17T08:41:36.929Z,99.90
2022-08-17T08:45:00.030Z,99.90
2022-08-17T08:47:42.501Z,99.90
2022-08-17T08:50:42.814Z,99.90
2022-08-17T08:53:39.505Z,99.90
2022-08-17T08:56:31.797Z,99.90
2022-08-17T08:59:16.700Z,99.90
2022-08-17T09:02:04.211Z,99.90
2022-08-17T09:05:15.545Z,99.90
2022-08-17T09:08:01.646Z,99.90
2022-08-17T09:10:51.747Z,99.90
2022-08-17T09:13:46.699Z,99.90
2022-08-17T09:16:52.372Z,99.90
2022-08-17T09:19:30.458Z,99.90
2022-08-17T09:22:31.482Z,99.90
2022-08-17T09:25:23.399Z,99.90
2022-08-17T09:28:07.552Z,99.90
2022-08-17T09:30:46.337Z,99.90
2022-08-17T09:33:28.687Z,99.90
2022-08-17T09:36:00.252Z,99.90
2022-08-17T09:38:47.329Z,99.90
2022-08-17T09:41:23.875Z,99.90
2022-08-17T09:43:54.438Z,99.90
2022-08-17T09:46:38.862Z,99.90
2022-08-17T09:49:11.757Z,99.90
2022-08-17T09:52:02.304Z,99.90
2022-08-17T09:54:39.054Z,99.90
2022-08-17T09:57:29.195Z,99.90
2022-08-17T10:00:16.223Z,99.90
2022-08-17T10:02:54.508Z,99.90
2022-08-17T10:05:26.077Z,99.90
2022-08-17T10:08:21.876Z,99.90
2022-08-17T10:10:58.975Z,99.90
2022-08-17T10:13:52.944Z,99.90
2022-08-17T10:16:43.892Z,99.90
2022-08-17T10:19:50.545Z,99.90
2022-08-17T10:22:49.871Z,99.90
2022-08-17T10:25:54.021Z,99.90
2022-08-17T10:28:28.818Z,99.90
2022-08-17T10:31:30.866Z,99.90
2022-08-17T10:34:00.748Z,99.90
2022-08-17T10:36:46.415Z,99.90
2022-08-17T10:39:50.575Z,99.90
2022-08-17T10:42:33.341Z,99.90
2022-08-17T10:45:26.392Z,99.90
2022-08-17T10:47:55.716Z,99.90
2022-08-17T10:50:59.972Z,99.90
2022-08-17T10:53:33.367Z,99.90
2022-08-17T10:56:12.476Z,99.90
2022-08-17T10:58:54.120Z,99.90
2022-08-17T11:02:00.157Z,99.90
2022-08-17T11:04:50.883Z,99.90
2022-08-17T11:07:17.981Z,99.90
2022-08-17T11:09:51.267Z,99.90
2022-08-17T11:12:43.447Z,99.90
2022-08-17T11:15:22.453Z,99.90
2022-08-17T11:18:06.607Z,99.90
2022-08-17T11:21:07.341Z,99.90
2022-08-17T11:24:01.655Z,99.90
2022-08-17T11:26:36.346Z,99.90
2022-08-17T11:29:09.611Z,99.90
2022-08-17T11:31:43.601Z,99.90
2022-08-17T11:34:19.530Z,99.90
2022-08-17T11:37:07.859Z,99.90
2022-08-17T11:39:49.647Z,99.90
2022-08-17T11:42:26.529Z,99.90
2022-08-17T11:44:57.379Z,99.90
2022-08-17T11:48:27.758Z,99.90
2022-08-17T11:51:17.236Z,99.90
2022-08-17T11:53:47.388Z,99.90
2022-08-17T11:56:41.244Z,99.90
2022-08-17T11:59:35.939Z,99.90
2022-08-17T12:02:19.974Z,99.90
2022-08-17T12:05:02.867Z,99.90
2022-08-17T12:07:32.648Z,99.90
2022-08-17T12:10:01.175Z,99.90
2022-08-17T12:12:35.468Z,99.90
2022-08-17T12:15:11.809Z,99.90
2022-08-17T12:17:40.219Z,99.90
2022-08-17T12:20:29.378Z,99.90
2022-08-17T12:23:30.217Z,99.90
2022-08-17T12:26:01.003Z,99.90
2022-08-17T12:28:33.292Z,99.90
2022-08-17T12:31:05.865Z,99.90
2022-08-17T12:33:36.062Z,99.90
2022-08-17T12:36:07.502Z,99.90
2022-08-17T12:38:37.886Z,99.90
2022-08-17T12:41:28.410Z,99.90
2022-08-17T12:44:02.090Z,1.00
2022-08-17T12:46:33.475Z,99.90
2022-08-17T12:49:37.512Z,1.00
2022-08-17T12:52:19.783Z,17.90
2022-08-17T12:54:52.539Z,84.80
2022-08-17T12:57:20.322Z,99.90
2022-08-17T12:59:53.344Z,1.00
2022-08-17T13:02:41.358Z,99.90
2022-08-17T13:05:36.004Z,99.90
2022-08-17T13:08:12.861Z,99.90
2022-08-17T13:10:40.223Z,99.90
2022-08-17T13:13:29.028Z,99.90
2022-08-17T13:16:03.324Z,40.70
2022-08-17T13:18:36.504Z,99.90
2022-08-17T13:21:03.774Z,99.90
2022-08-17T13:23:32.439Z,99.80
2022-08-17T13:26:15.857Z,77.20
2022-08-17T13:28:49.997Z,99.90
2022-08-17T13:31:28.473Z,5.00
2022-08-17T13:34:36.946Z,99.90
2022-08-17T13:37:25.672Z,99.90
2022-08-17T13:39:57.835Z,99.90
2022-08-17T13:42:50.390Z,1.80
2022-08-17T13:45:35.209Z,99.90
2022-08-17T13:48:15.956Z,76.80
2022-08-17T13:51:07.268Z,99.90
2022-08-17T13:53:37.284Z,99.90
2022-08-17T13:56:37.183Z,99.90
2022-08-17T13:59:12.287Z,1.00
2022-08-17T14:01:44.134Z,99.90
2022-08-17T14:04:21.053Z,99.90
2022-08-17T14:06:57.865Z,99.90
2022-08-17T14:09:37.392Z,99.90
2022-08-17T14:12:10.738Z,99.90
2022-08-17T14:14:39.416Z,99.90
2022-08-17T14:17:07.940Z,99.90
2022-08-17T14:19:35.743Z,99.90
2022-08-17T14:22:04.956Z,99.90
2022-08-17T14:24:44.507Z,99.90
2022-08-17T14:27:12.303Z,99.90
2022-08-17T14:29:41.304Z,99.90
2022-08-17T14:32:31.285Z,99.90
2022-08-17T14:34:59.870Z,99.90
2022-08-17T14:37:28.664Z,99.90
2022-08-17T14:39:57.149Z,99.90
2022-08-17T14:42:26.844Z,99.90
2022-08-17T14:44:55.586Z,99.90
2022-08-17T14:47:22.730Z,99.90
2022-08-17T14:49:50.096Z,1.00
2022-08-17T14:52:23.148Z,1.00
2022-08-17T14:54:51.863Z,91.50
2022-08-17T14:57:26.006Z,99.90
2022-08-17T15:00:02.418Z,96.10
2022-08-17T15:02:31.126Z,88.00
2022-08-17T15:05:00.256Z,55.90
2022-08-17T15:07:30.723Z,1.00
2022-08-17T15:10:02.698Z,99.90
2022-08-17T15:12:33.620Z,99.90
2022-08-17T15:15:05.192Z,99.90
2022-08-17T15:17:45.254Z,1.00
2022-08-17T15:20:17.202Z,1.00
2022-08-17T15:22:46.835Z,1.00
2022-08-17T15:25:14.127Z,1.00
2022-08-17T15:27:41.498Z,99.90
2022-08-17T15:30:10.021Z,99.90
2022-08-17T15:32:40.610Z,99.90
2022-08-17T15:35:11.802Z,99.90
2022-08-17T15:37:40.363Z,99.90
2022-08-17T15:40:09.689Z,99.90
2022-08-17T15:42:37.829Z,1.00
2022-08-17T15:45:09.388Z,99.90
2022-08-17T15:47:37.250Z,2.70
2022-08-17T15:50:06.402Z,99.90
2022-08-17T15:52:40.417Z,33.80
2022-08-17T15:55:11.936Z,99.90
2022-08-17T15:57:39.703Z,25.20
2022-08-17T16:00:09.373Z,99.90
2022-08-17T16:03:45.875Z,99.90
2022-08-17T16:05:28.609Z,99.90
2022-08-17T16:07:59.838Z,99.90
2022-08-17T16:10:35.401Z,99.90
2022-08-17T16:13:03.955Z,99.90
2022-08-17T16:15:32.022Z,99.90
2022-08-17T16:17:59.683Z,54.90
2022-08-17T16:20:27.131Z,99.90
2022-08-17T16:22:55.144Z,43.80
2022-08-17T16:25:50.304Z,99.90
2022-08-17T16:28:17.663Z,99.90
2022-08-17T16:30:44.816Z,88.10
2022-08-17T16:33:12.738Z,99.90
2022-08-17T16:35:41.973Z,99.90
2022-08-17T16:38:09.609Z,1.00
2022-08-17T16:40:38.109Z,99.90
2022-08-17T16:43:10.655Z,99.90
2022-08-17T16:45:40.736Z,99.90
2022-08-17T16:48:10.098Z,99.90
2022-08-17T16:50:37.406Z,99.90
2022-08-17T16:53:11.794Z,99.90
2022-08-17T16:55:39.131Z,99.90
2022-08-17T16:58:06.805Z,99.90
2022-08-17T17:00:34.257Z,99.90
2022-08-17T17:03:19.743Z,13.40
2022-08-17T17:06:24.632Z,99.90
2022-08-17T17:09:16.664Z,99.90
2022-08-17T17:11:46.766Z,99.90
2022-08-17T17:14:39.247Z,1.00
2022-08-17T17:17:26.021Z,1.00
2022-08-17T17:20:14.192Z,1.00
2022-08-17T17:23:05.029Z,99.90
2022-08-17T17:25:39.674Z,65.80
2022-08-17T17:28:26.370Z,99.90
2022-08-17T17:31:17.535Z,99.90
2022-08-17T17:34:00.449Z,99.90
2022-08-17T17:36:51.931Z,99.90
2022-08-17T17:39:43.761Z,99.90
2022-08-17T17:42:16.711Z,99.90
2022-08-17T17:45:04.799Z,1.00
2022-08-17T17:47:34.413Z,1.00
2022-08-17T17:50:04.331Z,99.90
2022-08-17T17:53:00.032Z,1.00
2022-08-17T17:55:37.520Z,1.00
2022-08-17T17:58:19.687Z,1.00
2022-08-17T18:00:51.453Z,1.00
2022-08-17T18:03:59.227Z,1.00
2022-08-17T18:06:50.577Z,1.00
2022-08-17T18:09:44.175Z,1.00
2022-08-17T18:12:25.186Z,1.00
2022-08-17T18:15:04.262Z,1.00
2022-08-17T18:17:31.791Z,1.00
2022-08-17T18:19:58.986Z,1.00
2022-08-17T18:22:26.423Z,1.00
2022-08-17T18:24:57.962Z,1.00
2022-08-17T18:27:27.897Z,1.00
2022-08-17T18:29:57.956Z,5.20
2022-08-17T18:32:34.745Z,9.50
2022-08-17T18:35:27.661Z,34.40
2022-08-17T18:38:19.444Z,37.50
2022-08-17T18:41:05.569Z,47.30
2022-08-17T18:43:44.479Z,45.40
2022-08-17T18:46:35.190Z,56.20
2022-08-17T18:49:02.375Z,54.80
2022-08-17T18:51:42.741Z,58.20
2022-08-17T18:54:23.997Z,62.80
2022-08-17T18:56:56.945Z,66.30
2022-08-17T18:59:29.701Z,68.80
2022-08-17T19:02:01.911Z,70.60
2022-08-17T19:04:40.197Z,76.20
2022-08-17T19:07:23.196Z,81.60
2022-08-17T19:10:05.343Z,89.00
2022-08-17T19:12:40.391Z,88.40
2022-08-17T19:15:10.444Z,91.60
2022-08-17T19:18:02.290Z,90.30
2022-08-17T19:20:45.531Z,87.00
2022-08-17T19:23:27.581Z,79.60
2022-08-17T19:25:58.409Z,46.70
2022-08-17T19:28:54.583Z,44.00
2022-08-17T19:31:26.515Z,35.40
2022-08-17T19:33:56.146Z,38.60
2022-08-17T19:36:35.438Z,35.70
2022-08-17T19:39:18.829Z,23.50
2022-08-17T19:42:01.839Z,16.40
2022-08-17T19:44:47.156Z,13.30
2022-08-17T19:47:54.275Z,12.90
2022-08-17T19:50:41.597Z,13.30
2022-08-17T19:53:23.736Z,9.70
2022-08-17T19:55:58.050Z,3.70
2022-08-17T19:58:38.822Z,1.00
2022-08-17T20:01:13.737Z,1.60
2022-08-17T20:04:18.454Z,1.00
2022-08-17T20:06:49.562Z,38.40
2022-08-17T20:09:40.092Z,50.60
2022-08-17T20:12:19.220Z,54.90
2022-08-17T20:15:07.449Z,56.10
2022-08-17T20:17:41.521Z,58.10
2022-08-17T20:20:27.395Z,55.10
2022-08-17T20:23:18.383Z,45.20
2022-08-17T20:26:14.869Z,35.00
2022-08-17T20:29:07.692Z,27.50
2022-08-17T20:31:42.698Z,20.00
2022-08-17T20:34:33.478Z,21.10
2022-08-17T20:37:04.337Z,36.70
2022-08-17T20:39:40.543Z,43.80
2022-08-17T20:42:22.850Z,53.60
2022-08-17T20:44:53.799Z,51.00
2022-08-17T20:47:32.741Z,42.10
2022-08-17T20:50:02.721Z,36.80
2022-08-17T20:52:35.783Z,37.30
2022-08-17T20:55:04.450Z,37.40
2022-08-17T20:57:34.358Z,37.60
2022-08-17T21:00:30.111Z,38.90
2022-08-17T21:03:22.553Z,54.10
2022-08-17T21:06:17.072Z,66.20
2022-08-17T21:08:53.939Z,67.40
2022-08-17T21:12:02.968Z,69.00
2022-08-17T21:14:59.990Z,73.70
2022-08-17T21:17:40.108Z,61.20
2022-08-17T21:20:39.101Z,57.80
2022-08-17T21:23:25.253Z,57.20
2022-08-17T21:26:29.678Z,59.20
2022-08-17T21:29:30.812Z,65.00
2022-08-17T21:32:03.108Z,75.80
2022-08-17T21:34:33.195Z,76.20
2022-08-17T21:37:22.385Z,69.70
2022-08-17T21:39:54.339Z,73.10
2022-08-17T21:42:48.994Z,66.10
2022-08-17T21:45:30.575Z,59.40
2022-08-17T21:48:24.016Z,47.90
2022-08-17T21:51:08.961Z,40.40
2022-08-17T21:53:50.143Z,26.90
2022-08-17T21:56:27.232Z,20.40
2022-08-17T21:59:07.578Z,20.90
2022-08-17T22:01:40.807Z,18.30
2022-08-17T22:04:11.512Z,4.00
2022-08-17T22:06:52.515Z,1.00
2022-08-17T22:09:46.702Z,1.00
2022-08-17T22:12:22.401Z,2.30
2022-08-17T22:15:04.207Z,2.20
2022-08-17T22:17:46.431Z,6.80
2022-08-17T22:20:20.676Z,1.00
2022-08-17T22:23:06.655Z,1.00
2022-08-17T22:25:40.633Z,1.00
2022-08-17T22:28:10.557Z,1.00
2022-08-17T22:30:43.561Z,1.00
2022-08-17T22:33:32.858Z,1.00
2022-08-17T22:36:22.022Z,1.00
2022-08-17T22:38:50.187Z,1.00
2022-08-17T22:41:26.303Z,1.00
2022-08-17T22:43:57.427Z,4.00
2022-08-17T22:46:26.183Z,13.50
2022-08-17T22:48:57.900Z,10.50
2022-08-17T22:51:30.933Z,5.90
2022-08-17T22:54:20.873Z,4.60
2022-08-17T22:57:18.710Z,15.30
2022-08-17T22:59:52.468Z,15.80
2022-08-17T23:02:30.615Z,14.40
2022-08-17T23:05:18.875Z,12.00
2022-08-17T23:07:47.333Z,9.50
2022-08-17T23:10:14.819Z,11.00
2022-08-17T23:12:42.158Z,9.60
2022-08-17T23:15:17.792Z,11.00
2022-08-17T23:17:46.057Z,16.80
2022-08-17T23:20:15.509Z,16.80
2022-08-17T23:22:52.092Z,14.20
2022-08-17T23:25:29.669Z,13.10
2022-08-17T23:27:58.889Z,5.10
2022-08-17T23:30:30.286Z,15.10
2022-08-17T23:33:03.421Z,11.40
2022-08-17T23:35:39.218Z,15.20
2022-08-17T23:38:12.029Z,7.10
2022-08-17T23:40:40.746Z,5.70
2022-08-17T23:43:24.163Z,2.70
2022-08-17T23:45:55.068Z,2.80
2022-08-17T23:48:35.084Z,5.70
2022-08-17T23:51:08.664Z,4.90
2022-08-17T23:53:37.111Z,12.40
2022-08-17T23:56:10.361Z,8.80
2022-08-17T23:58:43.000Z,4.20
